sensor_id;sensor_type;location;lat;lon;timestamp;temperature;humidity
19256;DHT22;9762;52.490;13.410;2023-07-02T00:02:17;21.30;99.50
19256;DHT22;9762;52.490;13.410;2023-07-02T00:04:44;21.30;99.50
19256;DHT22;9762;52.490;13.410;2023-07-02T00:07:10;21.30;99.60
19256;DHT22;9762;52.490;13.410;2023-07-02T00:09:36;21.30;99.60
19256;DHT22;9762;52.490;13.410;2023-07-02T00:12:02;21.30;99.50
19256;DHT22;9762;52.490;13.410;2023-07-02T00:14:27;21.30;99.60
19256;DHT22;9762;52.490;13.410;2023-07-02T00:16:53;21.30;99.90
19256;DHT22;9762;52.490;13.410;2023-07-02T00:19:18;21.30;99.70
19256;DHT22;9762;52.490;13.410;2023-07-02T00:21:44;21.30;99.80
19256;DHT22;9762;52.490;13.410;2023-07-02T00:24:10;21.30;99.90
19256;DHT22;9762;52.490;13.410;2023-07-02T00:26:36;21.30;99.90
19256;DHT22;9762;52.490;13.410;2023-07-02T00:29:03;21.30;99.90
19256;DHT22;9762;52.490;13.410;2023-07-02T00:31:31;21.30;99.90
19256;DHT22;9762;52.490;13.410;2023-07-02T00:33:57;21.30;99.90
19256;DHT22;9762;52.490;13.410;2023-07-02T00:36:22;21.40;99.90
19256;DHT22;9762;52.490;13.410;2023-07-02T00:38:49;21.30;99.90
19256;DHT22;9762;52.490;13.410;2023-07-02T00:41:15;21.40;99.90
19256;DHT22;9762;52.490;13.410;2023-07-02T00:43:41;21.40;99.90
19256;DHT22;9762;52.490;13.410;2023-07-02T00:46:16;21.40;99.90
19256;DHT22;9762;52.490;13.410;2023-07-02T00:48:49;21.40;99.90
19256;DHT22;9762;52.490;13.410;2023-07-02T00:51:18;21.30;99.90
19256;DHT22;9762;52.490;13.410;2023-07-02T00:53:45;21.30;99.90
19256;DHT22;9762;52.490;13.410;2023-07-02T00:56:11;21.30;99.90
19256;DHT22;9762;52.490;13.410;2023-07-02T00:58:42;21.30;99.90
19256;DHT22;9762;52.490;13.410;2023-07-02T01:01:21;21.30;99.90
19256;DHT22;9762;52.490;13.410;2023-07-02T01:03:57;21.20;99.90
19256;DHT22;9762;52.490;13.410;2023-07-02T01:06:30;21.20;99.90
19256;DHT22;9762;52.490;13.410;2023-07-02T01:08:58;21.10;99.90
19256;DHT22;9762;52.490;13.410;2023-07-02T01:11:44;21.10;99.90
19256;DHT22;9762;52.490;13.410;2023-07-02T01:14:15;21.00;99.90
19256;DHT22;9762;52.490;13.410;2023-07-02T01:16:43;21.00;99.90
19256;DHT22;9762;52.490;13.410;2023-07-02T01:22:06;21.00;99.90
19256;DHT22;9762;52.490;13.410;2023-07-02T01:24:33;20.90;99.90
19256;DHT22;9762;52.490;13.410;2023-07-02T01:26:58;20.90;99.90
19256;DHT22;9762;52.490;13.410;2023-07-02T01:29:29;20.90;99.90
19256;DHT22;9762;52.490;13.410;2023-07-02T01:31:55;20.90;99.90
19256;DHT22;9762;52.490;13.410;2023-07-02T01:34:20;20.90;99.90
19256;DHT22;9762;52.490;13.410;2023-07-02T01:36:46;20.90;99.90
19256;DHT22;9762;52.490;13.410;2023-07-02T01:39:12;20.90;99.90
19256;DHT22;9762;52.490;13.410;2023-07-02T01:42:08;20.90;99.90
19256;DHT22;9762;52.490;13.410;2023-07-02T01:44:34;20.90;99.90
19256;DHT22;9762;52.490;13.410;2023-07-02T01:46:59;21.00;99.90
19256;DHT22;9762;52.490;13.410;2023-07-02T01:49:25;21.00;99.90
19256;DHT22;9762;52.490;13.410;2023-07-02T01:51:52;21.00;99.90
19256;DHT22;9762;52.490;13.410;2023-07-02T01:54:22;20.90;99.90
19256;DHT22;9762;52.490;13.410;2023-07-02T01:56:48;20.90;99.90
19256;DHT22;9762;52.490;13.410;2023-07-02T01:59:13;20.90;99.90
19256;DHT22;9762;52.490;13.410;2023-07-02T02:01:39;20.90;99.50
19256;DHT22;9762;52.490;13.410;2023-07-02T02:04:09;20.90;99.40
19256;DHT22;9762;52.490;13.410;2023-07-02T02:06:35;20.90;99.50
19256;DHT22;9762;52.490;13.410;2023-07-02T02:09:02;20.90;99.40
19256;DHT22;9762;52.490;13.410;2023-07-02T02:11:29;20.90;99.30
19256;DHT22;9762;52.490;13.410;2023-07-02T02:13:55;20.90;99.10
19256;DHT22;9762;52.490;13.410;2023-07-02T02:16:21;20.90;99.00
19256;DHT22;9762;52.490;13.410;2023-07-02T02:18:47;20.90;99.00
19256;DHT22;9762;52.490;13.410;2023-07-02T02:21:12;20.80;99.10
19256;DHT22;9762;52.490;13.410;2023-07-02T02:23:38;20.90;99.10
19256;DHT22;9762;52.490;13.410;2023-07-02T02:26:03;20.90;99.00
19256;DHT22;9762;52.490;13.410;2023-07-02T02:28:29;20.80;99.10
19256;DHT22;9762;52.490;13.410;2023-07-02T02:30:54;20.80;99.10
19256;DHT22;9762;52.490;13.410;2023-07-02T02:33:21;20.90;99.40
19256;DHT22;9762;52.490;13.410;2023-07-02T02:35:47;20.90;98.90
19256;DHT22;9762;52.490;13.410;2023-07-02T02:38:13;20.80;98.90
19256;DHT22;9762;52.490;13.410;2023-07-02T02:40:40;20.80;98.90
19256;DHT22;9762;52.490;13.410;2023-07-02T02:43:05;20.80;98.80
19256;DHT22;9762;52.490;13.410;2023-07-02T02:45:31;20.80;98.80
19256;DHT22;9762;52.490;13.410;2023-07-02T02:47:57;20.80;98.70
19256;DHT22;9762;52.490;13.410;2023-07-02T02:50:22;20.80;98.60
19256;DHT22;9762;52.490;13.410;2023-07-02T02:52:48;20.80;98.60
19256;DHT22;9762;52.490;13.410;2023-07-02T02:55:14;20.70;98.70
19256;DHT22;9762;52.490;13.410;2023-07-02T02:57:39;20.70;98.70
19256;DHT22;9762;52.490;13.410;2023-07-02T03:00:06;20.70;98.70
19256;DHT22;9762;52.490;13.410;2023-07-02T03:02:35;20.70;98.70
19256;DHT22;9762;52.490;13.410;2023-07-02T03:05:01;20.80;98.60
19256;DHT22;9762;52.490;13.410;2023-07-02T03:07:28;20.80;98.50
19256;DHT22;9762;52.490;13.410;2023-07-02T03:09:53;20.80;98.50
19256;DHT22;9762;52.490;13.410;2023-07-02T03:12:19;20.70;98.50
19256;DHT22;9762;52.490;13.410;2023-07-02T03:14:45;20.70;98.60
19256;DHT22;9762;52.490;13.410;2023-07-02T03:17:13;20.70;98.40
19256;DHT22;9762;52.490;13.410;2023-07-02T03:19:38;20.60;98.40
19256;DHT22;9762;52.490;13.410;2023-07-02T03:22:04;20.60;98.50
19256;DHT22;9762;52.490;13.410;2023-07-02T03:24:30;20.50;98.60
19256;DHT22;9762;52.490;13.410;2023-07-02T03:26:55;20.50;98.70
19256;DHT22;9762;52.490;13.410;2023-07-02T03:29:21;20.50;98.70
19256;DHT22;9762;52.490;13.410;2023-07-02T03:31:47;20.50;98.70
19256;DHT22;9762;52.490;13.410;2023-07-02T03:34:12;20.50;98.70
19256;DHT22;9762;52.490;13.410;2023-07-02T03:36:38;20.50;98.70
19256;DHT22;9762;52.490;13.410;2023-07-02T03:39:04;20.50;98.60
19256;DHT22;9762;52.490;13.410;2023-07-02T03:41:30;20.50;98.40
19256;DHT22;9762;52.490;13.410;2023-07-02T03:43:56;20.50;98.50
19256;DHT22;9762;52.490;13.410;2023-07-02T03:46:22;20.50;98.30
19256;DHT22;9762;52.490;13.410;2023-07-02T03:48:47;20.50;98.20
19256;DHT22;9762;52.490;13.410;2023-07-02T03:51:13;20.50;98.10
19256;DHT22;9762;52.490;13.410;2023-07-02T03:53:40;20.50;98.00
19256;DHT22;9762;52.490;13.410;2023-07-02T03:56:06;20.50;97.70
19256;DHT22;9762;52.490;13.410;2023-07-02T03:58:31;20.50;97.60
19256;DHT22;9762;52.490;13.410;2023-07-02T04:00:57;20.50;97.50
19256;DHT22;9762;52.490;13.410;2023-07-02T04:03:23;20.50;97.30
19256;DHT22;9762;52.490;13.410;2023-07-02T04:05:48;20.50;97.30
19256;DHT22;9762;52.490;13.410;2023-07-02T04:08:15;20.50;97.20
19256;DHT22;9762;52.490;13.410;2023-07-02T04:10:41;20.50;97.00
19256;DHT22;9762;52.490;13.410;2023-07-02T04:13:06;20.60;97.00
19256;DHT22;9762;52.490;13.410;2023-07-02T04:15:32;20.60;96.70
19256;DHT22;9762;52.490;13.410;2023-07-02T04:17:58;20.60;96.60
19256;DHT22;9762;52.490;13.410;2023-07-02T04:20:24;20.60;96.50
19256;DHT22;9762;52.490;13.410;2023-07-02T04:22:51;20.60;96.50
19256;DHT22;9762;52.490;13.410;2023-07-02T04:25:16;20.70;96.50
19256;DHT22;9762;52.490;13.410;2023-07-02T04:27:43;20.70;96.50
19256;DHT22;9762;52.490;13.410;2023-07-02T04:30:10;20.80;96.40
19256;DHT22;9762;52.490;13.410;2023-07-02T04:32:36;20.80;96.00
19256;DHT22;9762;52.490;13.410;2023-07-02T04:35:02;20.80;95.90
19256;DHT22;9762;52.490;13.410;2023-07-02T04:37:28;20.90;95.80
19256;DHT22;9762;52.490;13.410;2023-07-02T04:39:54;20.90;95.40
19256;DHT22;9762;52.490;13.410;2023-07-02T04:42:20;20.90;95.50
19256;DHT22;9762;52.490;13.410;2023-07-02T04:44:45;21.00;95.30
19256;DHT22;9762;52.490;13.410;2023-07-02T04:47:11;21.00;95.10
19256;DHT22;9762;52.490;13.410;2023-07-02T04:49:40;21.00;95.00
19256;DHT22;9762;52.490;13.410;2023-07-02T04:52:06;21.00;95.00
19256;DHT22;9762;52.490;13.410;2023-07-02T04:54:31;21.00;95.00
19256;DHT22;9762;52.490;13.410;2023-07-02T04:56:57;21.00;94.90
19256;DHT22;9762;52.490;13.410;2023-07-02T04:59:24;21.00;94.80
19256;DHT22;9762;52.490;13.410;2023-07-02T05:01:50;21.10;94.70
19256;DHT22;9762;52.490;13.410;2023-07-02T05:04:15;21.10;94.70
19256;DHT22;9762;52.490;13.410;2023-07-02T05:06:41;21.20;94.60
19256;DHT22;9762;52.490;13.410;2023-07-02T05:09:06;21.20;94.30
19256;DHT22;9762;52.490;13.410;2023-07-02T05:11:32;21.20;94.10
19256;DHT22;9762;52.490;13.410;2023-07-02T05:13:58;21.20;94.30
19256;DHT22;9762;52.490;13.410;2023-07-02T05:16:23;21.20;94.30
19256;DHT22;9762;52.490;13.410;2023-07-02T05:18:49;21.20;94.30
19256;DHT22;9762;52.490;13.410;2023-07-02T05:21:18;21.20;94.20
19256;DHT22;9762;52.490;13.410;2023-07-02T05:23:43;21.20;94.10
19256;DHT22;9762;52.490;13.410;2023-07-02T05:26:09;21.20;94.20
19256;DHT22;9762;52.490;13.410;2023-07-02T05:28:35;21.20;94.00
19256;DHT22;9762;52.490;13.410;2023-07-02T05:31:00;21.30;93.90
19256;DHT22;9762;52.490;13.410;2023-07-02T05:33:26;21.30;94.00
19256;DHT22;9762;52.490;13.410;2023-07-02T05:35:51;21.20;93.80
19256;DHT22;9762;52.490;13.410;2023-07-02T05:38:18;21.30;93.60
19256;DHT22;9762;52.490;13.410;2023-07-02T05:40:44;21.30;93.60
19256;DHT22;9762;52.490;13.410;2023-07-02T05:43:09;21.30;93.30
19256;DHT22;9762;52.490;13.410;2023-07-02T05:45:35;21.30;93.10
19256;DHT22;9762;52.490;13.410;2023-07-02T05:48:01;21.30;93.30
19256;DHT22;9762;52.490;13.410;2023-07-02T05:50:26;21.30;93.00
19256;DHT22;9762;52.490;13.410;2023-07-02T05:52:52;21.40;92.90
19256;DHT22;9762;52.490;13.410;2023-07-02T05:55:17;21.50;92.80
19256;DHT22;9762;52.490;13.410;2023-07-02T05:57:43;21.50;92.50
19256;DHT22;9762;52.490;13.410;2023-07-02T06:00:10;21.50;92.30
19256;DHT22;9762;52.490;13.410;2023-07-02T06:02:36;21.60;92.30
19256;DHT22;9762;52.490;13.410;2023-07-02T06:05:01;21.50;92.20
19256;DHT22;9762;52.490;13.410;2023-07-02T06:07:27;21.50;92.20
19256;DHT22;9762;52.490;13.410;2023-07-02T06:09:53;21.50;91.90
19256;DHT22;9762;52.490;13.410;2023-07-02T06:12:20;21.50;91.90
19256;DHT22;9762;52.490;13.410;2023-07-02T06:14:46;21.50;92.10
19256;DHT22;9762;52.490;13.410;2023-07-02T06:17:12;21.60;92.10
19256;DHT22;9762;52.490;13.410;2023-07-02T06:19:38;21.60;91.90
19256;DHT22;9762;52.490;13.410;2023-07-02T06:22:04;21.70;91.40
19256;DHT22;9762;52.490;13.410;2023-07-02T06:24:29;21.70;91.00
19256;DHT22;9762;52.490;13.410;2023-07-02T06:26:55;21.80;90.70
19256;DHT22;9762;52.490;13.410;2023-07-02T06:29:23;21.80;90.40
19256;DHT22;9762;52.490;13.410;2023-07-02T06:31:49;21.80;89.00
19256;DHT22;9762;52.490;13.410;2023-07-02T06:34:15;21.90;89.10
19256;DHT22;9762;52.490;13.410;2023-07-02T06:36:41;21.90;88.70
19256;DHT22;9762;52.490;13.410;2023-07-02T06:39:07;21.90;89.80
19256;DHT22;9762;52.490;13.410;2023-07-02T06:41:35;21.90;89.40
19256;DHT22;9762;52.490;13.410;2023-07-02T06:44:00;22.00;89.60
19256;DHT22;9762;52.490;13.410;2023-07-02T06:46:26;22.00;88.70
19256;DHT22;9762;52.490;13.410;2023-07-02T06:48:52;22.10;88.20
19256;DHT22;9762;52.490;13.410;2023-07-02T06:51:17;22.20;88.50
19256;DHT22;9762;52.490;13.410;2023-07-02T06:53:44;22.20;88.50
19256;DHT22;9762;52.490;13.410;2023-07-02T06:56:10;22.30;88.60
19256;DHT22;9762;52.490;13.410;2023-07-02T06:58:36;22.30;88.10
19256;DHT22;9762;52.490;13.410;2023-07-02T07:01:02;22.40;87.80
19256;DHT22;9762;52.490;13.410;2023-07-02T07:03:28;22.40;87.20
19256;DHT22;9762;52.490;13.410;2023-07-02T07:05:54;22.40;87.00
19256;DHT22;9762;52.490;13.410;2023-07-02T07:08:19;22.40;86.80
19256;DHT22;9762;52.490;13.410;2023-07-02T07:10:45;22.50;86.10
19256;DHT22;9762;52.490;13.410;2023-07-02T07:13:13;22.50;85.60
19256;DHT22;9762;52.490;13.410;2023-07-02T07:15:39;22.60;86.10
19256;DHT22;9762;52.490;13.410;2023-07-02T07:18:05;22.70;85.80
19256;DHT22;9762;52.490;13.410;2023-07-02T07:20:31;22.80;85.30
19256;DHT22;9762;52.490;13.410;2023-07-02T07:22:57;22.80;84.10
19256;DHT22;9762;52.490;13.410;2023-07-02T07:25:23;22.90;84.10
19256;DHT22;9762;52.490;13.410;2023-07-02T07:27:49;22.90;83.70
19256;DHT22;9762;52.490;13.410;2023-07-02T07:30:14;22.90;82.10
19256;DHT22;9762;52.490;13.410;2023-07-02T07:32:41;22.90;82.40
19256;DHT22;9762;52.490;13.410;2023-07-02T07:35:07;22.90;81.40
19256;DHT22;9762;52.490;13.410;2023-07-02T07:37:33;22.90;81.80
19256;DHT22;9762;52.490;13.410;2023-07-02T07:39:58;22.90;82.20
19256;DHT22;9762;52.490;13.410;2023-07-02T07:42:24;23.00;81.50
19256;DHT22;9762;52.490;13.410;2023-07-02T07:44:50;23.00;80.70
19256;DHT22;9762;52.490;13.410;2023-07-02T07:47:16;23.00;80.50
19256;DHT22;9762;52.490;13.410;2023-07-02T07:49:42;23.00;80.20
19256;DHT22;9762;52.490;13.410;2023-07-02T07:52:07;23.00;80.50
19256;DHT22;9762;52.490;13.410;2023-07-02T07:54:33;23.00;79.50
19256;DHT22;9762;52.490;13.410;2023-07-02T07:57:04;23.00;79.50
19256;DHT22;9762;52.490;13.410;2023-07-02T07:59:30;23.00;79.40
19256;DHT22;9762;52.490;13.410;2023-07-02T08:01:55;22.90;79.70
19256;DHT22;9762;52.490;13.410;2023-07-02T08:04:21;22.90;80.50
19256;DHT22;9762;52.490;13.410;2023-07-02T08:06:47;22.90;80.60
19256;DHT22;9762;52.490;13.410;2023-07-02T08:09:12;22.80;81.00
19256;DHT22;9762;52.490;13.410;2023-07-02T08:11:38;22.70;81.30
19256;DHT22;9762;52.490;13.410;2023-07-02T08:14:04;22.80;81.70
19256;DHT22;9762;52.490;13.410;2023-07-02T08:16:29;22.70;82.00
19256;DHT22;9762;52.490;13.410;2023-07-02T08:18:55;22.60;82.30
19256;DHT22;9762;52.490;13.410;2023-07-02T08:21:20;22.50;82.80
19256;DHT22;9762;52.490;13.410;2023-07-02T08:23:46;22.50;83.50
19256;DHT22;9762;52.490;13.410;2023-07-02T08:26:12;22.40;83.10
19256;DHT22;9762;52.490;13.410;2023-07-02T08:28:38;22.30;83.30
19256;DHT22;9762;52.490;13.410;2023-07-02T08:31:04;22.30;83.00
19256;DHT22;9762;52.490;13.410;2023-07-02T08:33:30;22.30;82.50
19256;DHT22;9762;52.490;13.410;2023-07-02T08:35:56;22.30;82.10
19256;DHT22;9762;52.490;13.410;2023-07-02T08:38:23;22.30;82.40
19256;DHT22;9762;52.490;13.410;2023-07-02T08:40:51;22.20;82.60
19256;DHT22;9762;52.490;13.410;2023-07-02T08:43:17;22.20;82.70
19256;DHT22;9762;52.490;13.410;2023-07-02T08:45:44;22.20;82.10
19256;DHT22;9762;52.490;13.410;2023-07-02T08:48:10;22.30;81.70
19256;DHT22;9762;52.490;13.410;2023-07-02T08:50:36;22.20;80.30
19256;DHT22;9762;52.490;13.410;2023-07-02T08:53:02;22.20;79.20
19256;DHT22;9762;52.490;13.410;2023-07-02T08:55:28;22.20;79.10
19256;DHT22;9762;52.490;13.410;2023-07-02T08:57:56;22.20;77.40
19256;DHT22;9762;52.490;13.410;2023-07-02T09:00:25;22.20;77.30
19256;DHT22;9762;52.490;13.410;2023-07-02T09:02:50;22.20;76.50
19256;DHT22;9762;52.490;13.410;2023-07-02T09:05:16;22.20;75.50
19256;DHT22;9762;52.490;13.410;2023-07-02T09:07:49;22.20;75.10
19256;DHT22;9762;52.490;13.410;2023-07-02T09:10:29;22.20;75.50
19256;DHT22;9762;52.490;13.410;2023-07-02T09:13:07;22.20;74.20
19256;DHT22;9762;52.490;13.410;2023-07-02T09:15:38;22.30;75.00
19256;DHT22;9762;52.490;13.410;2023-07-02T09:18:24;22.30;74.70
19256;DHT22;9762;52.490;13.410;2023-07-02T09:20:56;22.30;74.30
19256;DHT22;9762;52.490;13.410;2023-07-02T09:23:22;22.30;74.70
19256;DHT22;9762;52.490;13.410;2023-07-02T09:25:48;22.40;75.00
19256;DHT22;9762;52.490;13.410;2023-07-02T09:28:18;22.40;75.40
19256;DHT22;9762;52.490;13.410;2023-07-02T09:33:16;22.50;74.30
19256;DHT22;9762;52.490;13.410;2023-07-02T09:35:42;22.50;74.50
19256;DHT22;9762;52.490;13.410;2023-07-02T09:38:09;22.60;74.60
19256;DHT22;9762;52.490;13.410;2023-07-02T09:40:37;22.60;73.90
19256;DHT22;9762;52.490;13.410;2023-07-02T09:43:07;22.70;73.80
19256;DHT22;9762;52.490;13.410;2023-07-02T09:45:33;22.70;73.10
19256;DHT22;9762;52.490;13.410;2023-07-02T09:47:59;22.80;72.90
19256;DHT22;9762;52.490;13.410;2023-07-02T09:50:24;22.80;73.20
19256;DHT22;9762;52.490;13.410;2023-07-02T09:52:53;22.90;72.80
19256;DHT22;9762;52.490;13.410;2023-07-02T09:55:18;22.90;73.20
19256;DHT22;9762;52.490;13.410;2023-07-02T09:57:44;22.90;73.80
19256;DHT22;9762;52.490;13.410;2023-07-02T10:00:11;22.90;73.80
19256;DHT22;9762;52.490;13.410;2023-07-02T10:02:36;23.00;72.80
19256;DHT22;9762;52.490;13.410;2023-07-02T10:05:03;23.00;72.80
19256;DHT22;9762;52.490;13.410;2023-07-02T10:07:31;23.10;73.10
19256;DHT22;9762;52.490;13.410;2023-07-02T10:10:00;23.10;72.90
19256;DHT22;9762;52.490;13.410;2023-07-02T10:12:27;23.20;71.90
19256;DHT22;9762;52.490;13.410;2023-07-02T10:14:55;23.20;71.60
19256;DHT22;9762;52.490;13.410;2023-07-02T10:17:34;23.30;71.70
19256;DHT22;9762;52.490;13.410;2023-07-02T10:20:04;23.30;71.60
19256;DHT22;9762;52.490;13.410;2023-07-02T10:22:51;23.40;71.90
19256;DHT22;9762;52.490;13.410;2023-07-02T10:25:31;23.40;71.90
19256;DHT22;9762;52.490;13.410;2023-07-02T10:27:58;23.40;72.70
19256;DHT22;9762;52.490;13.410;2023-07-02T10:30:38;23.50;72.80
19256;DHT22;9762;52.490;13.410;2023-07-02T10:33:15;23.60;71.70
19256;DHT22;9762;52.490;13.410;2023-07-02T10:35:42;23.70;71.30
19256;DHT22;9762;52.490;13.410;2023-07-02T10:38:25;23.70;71.00
19256;DHT22;9762;52.490;13.410;2023-07-02T10:40:57;23.80;71.50
19256;DHT22;9762;52.490;13.410;2023-07-02T10:43:25;23.80;73.00
19256;DHT22;9762;52.490;13.410;2023-07-02T10:45:50;23.90;72.60
19256;DHT22;9762;52.490;13.410;2023-07-02T10:48:16;24.00;71.90
19256;DHT22;9762;52.490;13.410;2023-07-02T10:50:42;24.00;71.40
19256;DHT22;9762;52.490;13.410;2023-07-02T10:53:14;24.10;68.80
19256;DHT22;9762;52.490;13.410;2023-07-02T10:55:40;24.10;68.50
19256;DHT22;9762;52.490;13.410;2023-07-02T10:58:08;24.10;68.80
19256;DHT22;9762;52.490;13.410;2023-07-02T11:03:21;24.20;70.40
19256;DHT22;9762;52.490;13.410;2023-07-02T11:05:47;24.30;70.50
19256;DHT22;9762;52.490;13.410;2023-07-02T11:08:13;24.40;69.80
19256;DHT22;9762;52.490;13.410;2023-07-02T11:10:39;24.40;68.80
19256;DHT22;9762;52.490;13.410;2023-07-02T11:13:18;24.40;67.60
19256;DHT22;9762;52.490;13.410;2023-07-02T11:15:44;24.40;65.40
19256;DHT22;9762;52.490;13.410;2023-07-02T11:18:18;24.40;65.50
19256;DHT22;9762;52.490;13.410;2023-07-02T11:20:46;24.40;66.70
19256;DHT22;9762;52.490;13.410;2023-07-02T11:26:01;24.40;67.00
19256;DHT22;9762;52.490;13.410;2023-07-02T11:28:29;24.30;67.30
19256;DHT22;9762;52.490;13.410;2023-07-02T11:30:55;24.30;67.50
19256;DHT22;9762;52.490;13.410;2023-07-02T11:33:34;24.20;67.20
19256;DHT22;9762;52.490;13.410;2023-07-02T11:36:00;24.10;67.00
19256;DHT22;9762;52.490;13.410;2023-07-02T11:38:26;24.00;67.50
19256;DHT22;9762;52.490;13.410;2023-07-02T11:40:52;24.00;67.70
19256;DHT22;9762;52.490;13.410;2023-07-02T11:43:17;24.00;66.60
19256;DHT22;9762;52.490;13.410;2023-07-02T11:45:43;23.90;65.50
19256;DHT22;9762;52.490;13.410;2023-07-02T11:48:09;23.90;66.10
19256;DHT22;9762;52.490;13.410;2023-07-02T11:50:34;23.90;64.80
19256;DHT22;9762;52.490;13.410;2023-07-02T11:53:00;23.90;62.80
19256;DHT22;9762;52.490;13.410;2023-07-02T11:55:26;24.00;62.50
19256;DHT22;9762;52.490;13.410;2023-07-02T11:57:51;24.10;62.00
19256;DHT22;9762;52.490;13.410;2023-07-02T12:00:17;24.20;60.70
19256;DHT22;9762;52.490;13.410;2023-07-02T12:02:43;24.20;59.40
19256;DHT22;9762;52.490;13.410;2023-07-02T12:05:08;24.20;59.40
19256;DHT22;9762;52.490;13.410;2023-07-02T12:07:34;24.30;59.80
19256;DHT22;9762;52.490;13.410;2023-07-02T12:10:00;24.40;59.10
19256;DHT22;9762;52.490;13.410;2023-07-02T12:12:26;24.40;58.60
19256;DHT22;9762;52.490;13.410;2023-07-02T12:14:51;24.50;58.70
19256;DHT22;9762;52.490;13.410;2023-07-02T12:17:17;24.60;59.10
19256;DHT22;9762;52.490;13.410;2023-07-02T12:19:42;24.80;59.20
19256;DHT22;9762;52.490;13.410;2023-07-02T12:22:08;24.90;57.20
19256;DHT22;9762;52.490;13.410;2023-07-02T12:24:34;25.00;56.60
19256;DHT22;9762;52.490;13.410;2023-07-02T12:27:00;25.10;56.70
19256;DHT22;9762;52.490;13.410;2023-07-02T12:29:25;25.20;57.20
19256;DHT22;9762;52.490;13.410;2023-07-02T12:31:51;25.30;55.60
19256;DHT22;9762;52.490;13.410;2023-07-02T12:34:16;25.40;55.20
19256;DHT22;9762;52.490;13.410;2023-07-02T12:36:42;25.50;55.30
19256;DHT22;9762;52.490;13.410;2023-07-02T12:39:08;25.50;56.20
19256;DHT22;9762;52.490;13.410;2023-07-02T12:41:34;25.60;55.70
19256;DHT22;9762;52.490;13.410;2023-07-02T12:43:59;25.60;55.30
19256;DHT22;9762;52.490;13.410;2023-07-02T12:46:25;25.60;53.60
19256;DHT22;9762;52.490;13.410;2023-07-02T12:48:51;25.70;54.50
19256;DHT22;9762;52.490;13.410;2023-07-02T12:51:16;25.70;54.10
19256;DHT22;9762;52.490;13.410;2023-07-02T12:53:42;25.80;54.20
19256;DHT22;9762;52.490;13.410;2023-07-02T12:56:08;25.80;53.10
19256;DHT22;9762;52.490;13.410;2023-07-02T12:58:33;25.80;53.30
19256;DHT22;9762;52.490;13.410;2023-07-02T13:00:59;25.90;52.60
19256;DHT22;9762;52.490;13.410;2023-07-02T13:03:25;26.00;53.10
19256;DHT22;9762;52.490;13.410;2023-07-02T13:05:51;26.10;56.10
19256;DHT22;9762;52.490;13.410;2023-07-02T13:08:16;26.10;55.50
19256;DHT22;9762;52.490;13.410;2023-07-02T13:10:42;26.10;55.40
19256;DHT22;9762;52.490;13.410;2023-07-02T13:13:08;26.20;53.80
19256;DHT22;9762;52.490;13.410;2023-07-02T13:15:34;26.10;53.50
19256;DHT22;9762;52.490;13.410;2023-07-02T13:18:01;26.10;53.50
19256;DHT22;9762;52.490;13.410;2023-07-02T13:20:26;26.20;54.80
19256;DHT22;9762;52.490;13.410;2023-07-02T13:22:52;26.30;53.40
19256;DHT22;9762;52.490;13.410;2023-07-02T13:25:18;26.50;53.80
19256;DHT22;9762;52.490;13.410;2023-07-02T13:30:10;26.90;69.10
19256;DHT22;9762;52.490;13.410;2023-07-02T13:32:35;27.20;51.50
19256;DHT22;9762;52.490;13.410;2023-07-02T13:35:01;27.40;51.10
19256;DHT22;9762;52.490;13.410;2023-07-02T13:37:26;27.50;51.10
19256;DHT22;9762;52.490;13.410;2023-07-02T13:39:52;27.70;50.90
19256;DHT22;9762;52.490;13.410;2023-07-02T13:42:18;27.80;56.20
19256;DHT22;9762;52.490;13.410;2023-07-02T13:44:44;28.00;61.10
19256;DHT22;9762;52.490;13.410;2023-07-02T13:47:09;28.10;62.10
19256;DHT22;9762;52.490;13.410;2023-07-02T13:49:36;28.30;49.90
19256;DHT22;9762;52.490;13.410;2023-07-02T13:52:02;28.50;48.80
19256;DHT22;9762;52.490;13.410;2023-07-02T13:54:28;28.50;48.20
19256;DHT22;9762;52.490;13.410;2023-07-02T13:56:55;28.60;48.20
19256;DHT22;9762;52.490;13.410;2023-07-02T13:59:20;28.60;48.30
19256;DHT22;9762;52.490;13.410;2023-07-02T14:01:46;28.70;48.20
19256;DHT22;9762;52.490;13.410;2023-07-02T14:04:13;28.70;47.20
19256;DHT22;9762;52.490;13.410;2023-07-02T14:06:39;28.70;47.10
19256;DHT22;9762;52.490;13.410;2023-07-02T14:09:05;28.60;47.10
19256;DHT22;9762;52.490;13.410;2023-07-02T14:11:32;28.40;46.80
19256;DHT22;9762;52.490;13.410;2023-07-02T14:13:58;28.30;47.40
19256;DHT22;9762;52.490;13.410;2023-07-02T14:16:23;28.20;47.80
19256;DHT22;9762;52.490;13.410;2023-07-02T14:18:50;27.80;46.80
19256;DHT22;9762;52.490;13.410;2023-07-02T14:21:16;27.60;47.60
19256;DHT22;9762;52.490;13.410;2023-07-02T14:23:43;27.40;48.10
19256;DHT22;9762;52.490;13.410;2023-07-02T14:26:09;27.20;49.70
19256;DHT22;9762;52.490;13.410;2023-07-02T14:28:35;27.20;49.30
19256;DHT22;9762;52.490;13.410;2023-07-02T14:31:02;27.20;49.60
19256;DHT22;9762;52.490;13.410;2023-07-02T14:33:30;27.30;49.00
19256;DHT22;9762;52.490;13.410;2023-07-02T14:35:56;27.50;48.20
19256;DHT22;9762;52.490;13.410;2023-07-02T14:38:22;27.60;46.90
19256;DHT22;9762;52.490;13.410;2023-07-02T14:40:49;27.60;47.20
19256;DHT22;9762;52.490;13.410;2023-07-02T14:43:15;27.80;47.00
19256;DHT22;9762;52.490;13.410;2023-07-02T14:45:52;27.80;46.80
19256;DHT22;9762;52.490;13.410;2023-07-02T14:48:18;28.00;45.90
19256;DHT22;9762;52.490;13.410;2023-07-02T14:50:52;28.00;45.50
19256;DHT22;9762;52.490;13.410;2023-07-02T14:53:19;27.90;45.80
19256;DHT22;9762;52.490;13.410;2023-07-02T14:55:46;27.80;46.30
19256;DHT22;9762;52.490;13.410;2023-07-02T14:58:13;27.80;46.20
19256;DHT22;9762;52.490;13.410;2023-07-02T15:00:45;27.90;46.30
19256;DHT22;9762;52.490;13.410;2023-07-02T15:03:10;27.90;46.40
19256;DHT22;9762;52.490;13.410;2023-07-02T15:05:36;28.00;45.90
19256;DHT22;9762;52.490;13.410;2023-07-02T15:08:02;28.20;45.70
19256;DHT22;9762;52.490;13.410;2023-07-02T15:10:27;28.30;45.90
19256;DHT22;9762;52.490;13.410;2023-07-02T15:12:53;28.30;46.10
19256;DHT22;9762;52.490;13.410;2023-07-02T15:15:18;28.30;45.80
19256;DHT22;9762;52.490;13.410;2023-07-02T15:17:44;28.20;45.30
19256;DHT22;9762;52.490;13.410;2023-07-02T15:20:10;28.00;45.60
19256;DHT22;9762;52.490;13.410;2023-07-02T15:22:37;27.90;45.60
19256;DHT22;9762;52.490;13.410;2023-07-02T15:25:03;27.70;46.10
19256;DHT22;9762;52.490;13.410;2023-07-02T15:27:28;27.60;46.50
19256;DHT22;9762;52.490;13.410;2023-07-02T15:29:55;27.40;46.80
19256;DHT22;9762;52.490;13.410;2023-07-02T15:32:21;27.10;47.10
19256;DHT22;9762;52.490;13.410;2023-07-02T15:34:46;26.90;47.20
19256;DHT22;9762;52.490;13.410;2023-07-02T15:37:12;26.80;47.60
19256;DHT22;9762;52.490;13.410;2023-07-02T15:39:38;26.80;48.20
19256;DHT22;9762;52.490;13.410;2023-07-02T15:42:03;26.90;48.70